Time;durP1;ratioP1;P1;durP2;ratioP2;P2;SDS_P1;SDS_P2;PMS_P1;PMS_P2;Temp;Humidity;BMP_temperature;BMP_pressure;BME280_temperature;BME280_humidity;BME280_pressure;Samples;Min_cycle;Max_cycle;Signal;HPM_P1;HPM_P2
2023/01/31 00:01:07;;;;;;;24.40;14.80;;;;;;;-143.84;77.35;45254.72;5009756;28;20480;-73
2023/01/31 00:03:37;;;;;;;25.33;14.60;;;;;;;-143.84;77.37;45249.00;5009765;28;20439;-73
2023/01/31 00:06:16;;;;;;;24.33;15.37;;;;;;;-143.84;77.16;45262.34;5009186;28;21092;-73
2023/01/31 00:08:44;;;;;;;26.30;15.73;;;;;;;-143.84;76.70;45250.91;5009594;28;20829;-73
2023/01/31 00:11:12;;;;;;;26.67;14.30;;;;;;;-143.84;76.40;45264.25;5009610;28;20451;-71
2023/01/31 00:13:39;;;;;;;26.40;14.20;;;;;;;-143.84;76.29;45247.09;5009799;28;20505;-72
2023/01/31 00:16:07;;;;;;;27.97;14.97;;;;;;;-143.84;76.50;45256.63;5009889;28;20935;-71
2023/01/31 00:18:37;;;;;;;25.87;13.80;;;;;;;-143.84;76.72;45264.25;5009693;28;20475;-72
2023/01/31 00:21:10;;;;;;;24.17;12.93;;;;;;;-143.84;76.38;45254.72;5009148;28;20498;-71
2023/01/31 00:23:37;;;;;;;25.20;13.90;;;;;;;-143.84;76.55;45277.56;5010134;28;20837;-72
2023/01/31 00:26:09;;;;;;;22.70;13.30;;;;;;;-143.84;76.95;45264.25;5009998;28;21055;-72
2023/01/31 00:28:36;;;;;;;24.17;14.13;;;;;;;-143.84;77.00;45243.31;5009975;28;20447;-72
2023/01/31 00:31:03;;;;;;;19.17;11.87;;;;;;;-143.84;77.07;45292.81;5010036;28;20448;-74
2023/01/31 00:33:30;;;;;;;17.43;11.47;;;;;;;-143.84;76.88;45233.78;5011168;28;20439;-74
2023/01/31 00:35:59;;;;;;;23.67;12.70;;;;;;;-143.84;77.44;45235.69;5014254;28;20463;-74
2023/01/31 00:38:26;;;;;;;22.47;11.13;;;;;;;-143.84;77.47;45243.31;5013889;28;20941;-74
2023/01/31 00:40:54;;;;;;;22.17;12.77;;;;;;;-143.84;77.07;45237.59;5014096;28;20530;-74
2023/01/31 00:43:21;;;;;;;20.80;13.30;;;;;;;-143.84;77.29;45243.31;5013592;28;20450;-74
2023/01/31 00:45:48;;;;;;;22.53;12.87;;;;;;;-143.84;77.14;45262.34;5013205;28;20513;-74
2023/01/31 00:48:15;;;;;;;28.17;12.70;;;;;;;-143.84;77.08;45266.16;5013301;28;20509;-74
2023/01/31 00:50:43;;;;;;;24.60;12.67;;;;;;;-143.84;76.57;45279.47;5013632;28;20485;-74
2023/01/31 00:53:11;;;;;;;19.97;11.23;;;;;;;-143.84;76.19;45266.16;5013205;28;21031;-73
2023/01/31 00:55:38;;;;;;;20.37;12.33;;;;;;;-143.84;76.08;45273.78;5013588;28;20873;-74
2023/01/31 00:58:06;;;;;;;17.57;11.83;;;;;;;-143.84;76.16;45252.81;5013223;28;20432;-74
2023/01/31 01:00:33;;;;;;;17.40;11.50;;;;;;;-143.84;75.81;45268.06;5013251;28;20509;-74
2023/01/31 01:03:00;;;;;;;18.67;11.63;;;;;;;-143.84;75.23;45252.81;5013221;28;20463;-74
2023/01/31 01:05:27;;;;;;;23.00;14.20;;;;;;;-143.84;74.72;45273.78;5012307;28;20466;-74
2023/01/31 01:07:54;;;;;;;19.93;12.10;;;;;;;-143.84;75.42;45241.41;5012589;28;20570;-74
2023/01/31 01:10:23;;;;;;;18.77;13.13;;;;;;;-143.84;75.24;45287.09;5012985;28;21376;-74
2023/01/31 01:12:50;;;;;;;20.80;12.37;;;;;;;-143.84;74.87;45262.34;5013000;28;20505;-74
2023/01/31 01:15:17;;;;;;;28.43;17.10;;;;;;;-143.84;75.01;45262.34;5012640;28;20451;-74
2023/01/31 01:17:44;;;;;;;17.90;11.63;;;;;;;-143.84;75.29;45264.25;5012790;28;20447;-74
2023/01/31 01:20:12;;;;;;;16.00;11.00;;;;;;;-143.84;75.08;45241.41;5012528;28;21066;-74
2023/01/31 01:22:39;;;;;;;18.90;11.80;;;;;;;-143.84;75.24;45268.06;5013087;28;21114;-74
2023/01/31 01:25:07;;;;;;;18.37;10.53;;;;;;;-143.84;74.80;45266.16;5012743;28;21013;-74
2023/01/31 01:27:36;;;;;;;18.23;10.43;;;;;;;-143.84;75.16;45260.44;5012614;28;20857;-74
2023/01/31 01:30:03;;;;;;;16.97;11.60;;;;;;;-143.84;75.30;45268.06;5012812;28;20498;-74
2023/01/31 01:32:30;;;;;;;15.90;10.47;;;;;;;-143.84;75.13;45275.66;5012707;28;20435;-74
2023/01/31 01:34:58;;;;;;;18.53;11.13;;;;;;;-143.84;75.12;45269.97;5012547;28;20864;-74
2023/01/31 01:37:25;;;;;;;17.07;9.87;;;;;;;-143.84;75.52;45269.97;5012406;28;20463;-74
2023/01/31 01:39:53;;;;;;;17.47;11.73;;;;;;;-143.84;75.69;45275.66;5012627;28;20964;-72
2023/01/31 01:42:22;;;;;;;17.80;11.47;;;;;;;-143.84;75.92;45290.91;5012598;28;20501;-72
2023/01/31 01:44:53;;;;;;;19.27;12.20;;;;;;;-143.84;75.24;45281.38;5012736;28;20507;-72
2023/01/31 01:47:35;;;;;;;22.73;12.97;;;;;;;-143.84;75.38;45249.00;5010934;28;20553;-72
2023/01/31 01:50:09;;;;;;;18.77;12.60;;;;;;;-143.84;75.58;45268.06;5012030;28;21205;-72
2023/01/31 01:52:40;;;;;;;20.00;13.63;;;;;;;-143.84;75.76;45247.09;5011952;28;20506;-72
2023/01/31 01:55:14;;;;;;;23.80;14.47;;;;;;;-143.84;75.95;45249.00;5012850;28;20439;-72
2023/01/31 01:57:44;;;;;;;23.87;13.67;;;;;;;-143.84;75.63;45250.91;5011893;28;20508;-72
2023/01/31 02:00:15;;;;;;;23.37;13.90;;;;;;;-143.84;75.72;45269.97;5012633;28;20446;-72
2023/01/31 02:02:44;;;;;;;21.27;13.27;;;;;;;-143.84;75.70;45239.50;5012356;28;20448;-72
2023/01/31 02:05:14;;;;;;;25.87;12.80;;;;;;;-143.84;75.61;45231.88;5012205;28;20957;-72
2023/01/31 02:07:42;;;;;;;19.50;11.60;;;;;;;-143.84;76.22;45250.91;5011904;28;20509;-72
2023/01/31 02:10:14;;;;;;;19.83;12.60;;;;;;;-143.84;76.35;45239.50;5011901;28;20444;-72
2023/01/31 02:12:42;;;;;;;19.17;12.40;;;;;;;-143.84;76.35;45239.50;5011585;28;20942;-71
2023/01/31 02:15:10;;;;;;;19.33;13.03;;;;;;;-143.84;76.00;45231.88;5011407;28;20800;-71
2023/01/31 02:17:39;;;;;;;19.07;12.17;;;;;;;-143.84;76.46;45290.91;5010686;28;20547;-72
2023/01/31 02:20:22;;;;;;;22.07;12.20;;;;;;;-143.84;76.46;45258.53;5010427;28;21063;-71
2023/01/31 02:23:06;;;;;;;20.87;12.80;;;;;;;-143.84;76.76;45260.44;5010316;28;20467;-72
2023/01/31 02:26:05;;;;;;;17.90;12.50;;;;;;;-143.84;77.33;45252.81;5011291;28;20948;-72
2023/01/31 02:29:00;;;;;;;18.47;11.50;;;;;;;-143.84;77.85;45237.59;5011038;28;20447;-72
2023/01/31 02:31:58;;;;;;;21.27;12.10;;;;;;;-143.84;77.91;45241.41;5010389;28;21371;-72
2023/01/31 02:34:34;;;;;;;19.07;11.30;;;;;;;-143.84;78.17;45262.34;5010715;28;20510;-72
2023/01/31 02:37:15;;;;;;;18.50;11.43;;;;;;;-143.84;78.05;45237.59;5010854;28;20472;-71
2023/01/31 02:39:49;;;;;;;21.27;13.00;;;;;;;-143.84;77.77;45254.72;5011185;28;20447;-71
2023/01/31 02:42:28;;;;;;;22.77;13.27;;;;;;;-143.84;78.00;45266.16;5011078;28;20443;-73
2023/01/31 02:45:03;;;;;;;20.70;12.77;;;;;;;-143.84;78.20;45226.16;5010719;28;20450;-74
2023/01/31 02:47:51;;;;;;;20.43;13.40;;;;;;;-143.84;78.24;45226.16;5010712;28;20522;-73
2023/01/31 02:50:27;;;;;;;24.30;13.37;;;;;;;-143.84;78.04;45266.16;5010965;28;20443;-74
2023/01/31 02:53:00;;;;;;;20.70;12.50;;;;;;;-143.84;77.50;45245.19;5010873;28;20454;-74
2023/01/31 02:58:20;;;;;;;22.83;14.97;;;;;;;-143.84;77.73;45258.53;5010834;28;20428;-74
2023/01/31 03:00:48;;;;;;;24.67;13.47;;;;;;;-143.84;77.71;45241.41;5011152;28;21060;-69
2023/01/31 03:03:21;;;;;;;22.10;13.97;;;;;;;-143.84;77.39;45256.63;5010634;28;20799;-70
2023/01/31 03:06:34;;;;;;;21.77;13.93;;;;;;;-143.84;77.01;45214.72;5011032;28;20436;-70
2023/01/31 03:09:07;;;;;;;23.97;14.93;;;;;;;-143.84;77.77;45249.00;5010560;28;20443;-70
2023/01/31 03:11:43;;;;;;;23.37;14.10;;;;;;;-143.84;77.54;45226.16;5010809;28;20530;-74
2023/01/31 03:14:20;;;;;;;27.67;13.87;;;;;;;-143.84;77.49;45241.41;5010960;28;20436;-74
2023/01/31 03:19:48;;;;;;;17.33;12.10;;;;;;;-143.84;77.72;45260.44;5010290;28;20557;-74
2023/01/31 03:22:23;;;;;;;21.47;14.37;;;;;;;-143.84;77.41;45249.00;5010751;28;20448;-74
2023/01/31 03:24:52;;;;;;;20.17;13.10;;;;;;;-143.84;77.62;45243.31;5010548;28;21012;-74
2023/01/31 03:27:20;;;;;;;23.47;12.70;;;;;;;-143.84;77.54;45239.50;5009718;28;20537;-74
2023/01/31 03:29:48;;;;;;;22.27;14.33;;;;;;;-143.84;78.17;45262.34;5008876;28;20971;-74
2023/01/31 03:32:25;;;;;;;23.50;13.90;;;;;;;-143.84;77.80;45249.00;5008765;28;20435;-74
2023/01/31 03:34:53;;;;;;;21.73;14.07;;;;;;;-143.84;78.07;45250.91;5009315;28;20447;-74
2023/01/31 03:37:29;;;;;;;20.27;13.77;;;;;;;-143.84;78.13;45250.91;5009512;28;20486;-74
2023/01/31 03:40:04;;;;;;;21.73;14.60;;;;;;;-143.84;77.78;45212.84;5010183;28;20505;-74
2023/01/31 03:42:39;;;;;;;25.20;14.30;;;;;;;-143.84;78.21;45231.88;5010506;28;20447;-74
2023/01/31 03:45:11;;;;;;;23.67;14.30;;;;;;;-143.84;78.08;45266.16;5009989;28;20431;-74
2023/01/31 03:47:41;;;;;;;27.03;15.57;;;;;;;-143.84;77.95;45239.50;5009951;28;21240;-74
2023/01/31 03:50:13;;;;;;;22.50;16.20;;;;;;;-143.84;78.50;45249.00;5009769;28;20937;-74
2023/01/31 03:52:49;;;;;;;25.40;16.93;;;;;;;-143.84;78.60;45231.88;5010084;28;20451;-74
2023/01/31 03:55:19;;;;;;;33.60;18.13;;;;;;;-143.84;78.05;45249.00;5009394;28;20439;-74
2023/01/31 03:57:51;;;;;;;23.50;16.70;;;;;;;-143.84;78.46;45269.97;5009919;28;20525;-74
2023/01/31 04:00:20;;;;;;;29.50;18.53;;;;;;;-143.84;79.09;45254.72;5010043;28;20447;-74
2023/01/31 04:02:51;;;;;;;28.77;18.17;;;;;;;-143.84;78.71;45254.72;5009868;28;20511;-74
2023/01/31 04:05:21;;;;;;;32.93;19.93;;;;;;;-143.84;78.72;45220.44;5008858;28;20506;-74
2023/01/31 04:07:50;;;;;;;39.40;23.30;;;;;;;-143.84;78.60;45233.78;5007561;28;20479;-74
2023/01/31 04:10:19;;;;;;;34.93;20.10;;;;;;;-143.84;78.99;45245.19;5008883;28;20455;-74
2023/01/31 04:12:47;;;;;;;28.47;17.93;;;;;;;-143.84;78.68;45262.34;5009647;28;20455;-74
2023/01/31 04:15:15;;;;;;;26.90;17.73;;;;;;;-143.84;78.50;45216.63;5010685;28;20443;-72
2023/01/31 04:17:42;;;;;;;26.97;18.27;;;;;;;-143.84;77.89;45235.69;5010554;28;20443;-72
2023/01/31 04:20:11;;;;;;;32.17;17.10;;;;;;;-143.84;77.91;45262.34;5010304;28;20506;-72
2023/01/31 04:22:39;;;;;;;30.10;17.27;;;;;;;-143.84;77.34;45224.25;5010396;28;20470;-72
2023/01/31 04:25:08;;;;;;;26.20;15.83;;;;;;;-143.84;77.87;45243.31;5010513;28;20443;-71
2023/01/31 04:27:35;;;;;;;24.03;15.37;;;;;;;-143.84;78.06;45247.09;5009520;28;20537;-71
2023/01/31 04:30:03;;;;;;;29.97;17.53;;;;;;;-143.84;78.12;45228.06;5009905;28;20448;-71
2023/01/31 04:32:30;;;;;;;37.87;18.80;;;;;;;-143.84;77.97;45235.69;5009720;28;20447;-72
2023/01/31 04:34:57;;;;;;;35.73;18.40;;;;;;;-143.84;78.14;45239.50;5009842;28;20448;-72
2023/01/31 04:37:24;;;;;;;34.80;20.07;;;;;;;-143.84;77.97;45249.00;5009886;28;20443;-71
2023/01/31 04:39:51;;;;;;;37.87;19.63;;;;;;;-143.84;77.90;45207.13;5009593;28;20884;-72
2023/01/31 04:42:19;;;;;;;36.60;19.63;;;;;;;-143.84;78.23;45250.91;5010078;28;20912;-72
2023/01/31 04:44:47;;;;;;;38.40;19.30;;;;;;;-143.84;77.68;45249.00;5009595;28;20462;-72
2023/01/31 04:47:14;;;;;;;39.07;20.87;;;;;;;-143.84;77.96;45222.34;5009113;28;20849;-73
2023/01/31 04:49:51;;;;;;;40.63;21.00;;;;;;;-143.84;78.28;45235.69;5013185;28;20439;-73
2023/01/31 04:52:19;;;;;;;35.40;18.87;;;;;;;-143.84;78.38;45224.25;5010676;28;20970;-74
2023/01/31 04:54:46;;;;;;;34.47;20.23;;;;;;;-143.84;78.62;45254.72;5009633;28;20460;-73
2023/01/31 04:57:13;;;;;;;41.17;19.90;;;;;;;-143.84;79.31;45235.69;5009716;28;20489;-72
2023/01/31 04:59:42;;;;;;;35.00;19.07;;;;;;;-143.84;79.30;45245.19;5009309;28;20419;-73
2023/01/31 05:02:09;;;;;;;37.00;19.30;;;;;;;-143.84;78.62;45212.84;5008520;28;20505;-73
2023/01/31 05:04:36;;;;;;;33.23;19.87;;;;;;;-143.84;79.01;45228.06;5008852;28;20875;-73
2023/01/31 05:07:03;;;;;;;30.97;18.90;;;;;;;-143.84;78.79;45254.72;5008645;28;20478;-73
2023/01/31 05:09:30;;;;;;;34.33;19.60;;;;;;;-143.84;79.39;45241.41;5009259;28;20517;-73
2023/01/31 05:11:58;;;;;;;32.53;18.20;;;;;;;-143.84;79.12;45229.97;5008924;28;20441;-73
2023/01/31 05:14:26;;;;;;;30.40;17.77;;;;;;;-143.84;78.65;45245.19;5008700;28;20968;-73
2023/01/31 05:16:54;;;;;;;39.40;21.47;;;;;;;-143.84;78.88;45231.88;5008194;28;21346;-73
2023/01/31 05:19:21;;;;;;;31.30;19.67;;;;;;;-143.84;78.87;45224.25;5009723;28;20576;-73
2023/01/31 05:21:58;;;;;;;38.10;20.10;;;;;;;-143.84;79.17;45241.41;5012476;28;20485;-75
2023/01/31 05:24:27;;;;;;;42.57;21.00;;;;;;;-143.84;79.19;45231.88;5014377;28;20434;-75
2023/01/31 05:26:57;;;;;;;35.20;19.43;;;;;;;-143.84;79.79;45229.97;5012971;28;20903;-76
2023/01/31 05:29:25;;;;;;;38.53;19.97;;;;;;;-143.84;79.69;45229.97;5013669;28;20454;-74
2023/01/31 05:31:55;;;;;;;41.03;23.70;;;;;;;-143.84;79.62;45216.63;5013623;28;20510;-74
2023/01/31 05:34:24;;;;;;;35.83;19.40;;;;;;;-143.84;80.14;45220.44;5013100;28;20527;-75
2023/01/31 05:36:51;;;;;;;42.07;23.00;;;;;;;-143.84;80.55;45243.31;5011862;28;20541;-75
2023/01/31 05:39:18;;;;;;;39.53;22.63;;;;;;;-143.84;80.59;45222.34;5011577;28;20443;-75
2023/01/31 05:41:45;;;;;;;49.30;24.80;;;;;;;-143.84;80.30;45212.84;5012734;28;20852;-75
2023/01/31 05:44:13;;;;;;;39.93;22.97;;;;;;;-143.84;80.92;45203.31;5013198;28;20448;-75
2023/01/31 05:46:40;;;;;;;37.13;21.10;;;;;;;-143.84;80.46;45220.44;5012933;28;20942;-75
2023/01/31 05:49:09;;;;;;;38.63;23.13;;;;;;;-143.84;81.05;45224.25;5012066;28;20436;-75
2023/01/31 05:51:36;;;;;;;44.50;24.43;;;;;;;-143.84;80.81;45226.16;5011777;28;20513;-75
2023/01/31 05:54:04;;;;;;;44.87;23.20;;;;;;;-143.84;81.18;45212.84;5011656;28;20458;-75
2023/01/31 05:56:32;;;;;;;46.40;25.37;;;;;;;-143.84;81.79;45220.44;5011260;28;20444;-74
2023/01/31 05:59:01;;;;;;;41.73;22.63;;;;;;;-143.84;81.62;45212.84;5011802;28;20451;-74
2023/01/31 06:01:29;;;;;;;40.43;21.23;;;;;;;-143.84;81.76;45191.88;5011464;28;20455;-75
2023/01/31 06:03:56;;;;;;;43.93;22.10;;;;;;;-143.84;82.19;45212.84;5012025;28;20502;-75
2023/01/31 06:06:25;;;;;;;39.90;22.13;;;;;;;-143.84;82.94;45170.94;5011254;28;20435;-75
2023/01/31 06:08:52;;;;;;;43.87;22.50;;;;;;;-143.84;83.06;45146.19;5012233;28;20490;-75
2023/01/31 06:11:19;;;;;;;39.07;23.10;;;;;;;-143.84;82.98;45180.47;5012255;28;20435;-75
2023/01/31 06:13:48;;;;;;;41.53;22.17;;;;;;;-143.84;83.35;45129.03;5012297;28;21056;-75
2023/01/31 06:16:15;;;;;;;43.50;22.70;;;;;;;-143.84;83.11;45180.47;5012735;28;20443;-75
2023/01/31 06:18:42;;;;;;;41.27;22.67;;;;;;;-143.84;83.19;45165.22;5012165;28;20999;-74
2023/01/31 06:21:10;;;;;;;44.57;22.27;;;;;;;-143.84;83.53;45113.81;5011650;28;20498;-74
2023/01/31 06:23:40;;;;;;;38.20;22.17;;;;;;;-143.84;83.18;45155.69;5011292;28;20514;-74
2023/01/31 06:26:07;;;;;;;46.07;24.77;;;;;;;-143.84;83.17;45165.22;5009873;28;20945;-74
2023/01/31 06:28:36;;;;;;;40.80;23.93;;;;;;;-143.84;83.00;45150.00;5011156;28;21035;-74
2023/01/31 06:31:07;;;;;;;44.57;25.10;;;;;;;-143.84;83.43;45146.19;5010494;28;20451;-75
2023/01/31 06:33:34;;;;;;;48.30;25.60;;;;;;;-143.84;83.53;45132.84;5011671;28;20510;-75
2023/01/31 06:36:01;;;;;;;53.30;27.20;;;;;;;-143.84;83.65;45083.34;5011844;28;20508;-75
2023/01/31 06:38:29;;;;;;;49.33;28.03;;;;;;;-143.84;83.60;45142.38;5011795;28;20839;-74
2023/01/31 06:40:58;;;;;;;50.90;28.87;;;;;;;-143.84;83.95;45092.88;5011279;28;20451;-75
2023/01/31 06:43:25;;;;;;;49.90;28.57;;;;;;;-143.84;83.60;45087.16;5011663;28;20428;-75
2023/01/31 06:45:52;;;;;;;48.53;27.83;;;;;;;-143.84;83.87;45096.66;5011714;28;20466;-75
2023/01/31 06:48:19;;;;;;;55.70;29.50;;;;;;;-143.84;83.98;45073.81;5011447;28;20546;-75
2023/01/31 06:50:47;;;;;;;57.50;31.30;;;;;;;-143.84;84.20;45083.34;5011821;28;20972;-75
2023/01/31 06:53:14;;;;;;;62.53;32.40;;;;;;;-143.84;84.30;45062.41;5011660;28;20505;-75
2023/01/31 06:55:41;;;;;;;56.30;31.00;;;;;;;-143.84;84.32;45068.13;5011613;28;20443;-75
2023/01/31 06:58:09;;;;;;;57.60;32.10;;;;;;;-143.84;84.12;45087.16;5011751;28;20448;-75
2023/01/31 07:00:37;;;;;;;54.37;30.93;;;;;;;-143.84;84.29;45058.59;5011243;28;21295;-75
2023/01/31 07:03:04;;;;;;;56.07;32.60;;;;;;;-143.84;83.97;45050.97;5011707;28;20451;-75
2023/01/31 07:05:31;;;;;;;55.00;30.27;;;;;;;-143.84;83.57;45089.06;5011698;28;20459;-74
2023/01/31 07:07:58;;;;;;;55.70;31.63;;;;;;;-143.84;83.46;45119.53;5011445;28;21005;-74
2023/01/31 07:10:25;;;;;;;52.03;29.90;;;;;;;-143.84;83.38;45077.63;5011317;28;20439;-74
2023/01/31 07:12:52;;;;;;;47.30;25.93;;;;;;;-143.84;83.17;45123.34;5011466;28;20452;-74
2023/01/31 07:15:21;;;;;;;40.43;22.73;;;;;;;-143.84;82.63;45115.72;5010996;28;20812;-74
2023/01/31 07:17:48;;;;;;;29.77;19.13;;;;;;;-143.84;82.58;45134.75;5010798;28;20860;-74
2023/01/31 07:20:15;;;;;;;36.43;19.70;;;;;;;-143.84;82.40;45157.59;5009817;28;20491;-75
2023/01/31 07:22:42;;;;;;;33.90;20.90;;;;;;;-143.84;81.89;45186.16;5010820;28;20444;-74
2023/01/31 07:25:10;;;;;;;36.70;21.30;;;;;;;-143.84;81.64;45188.06;5010705;28;20437;-74
2023/01/31 07:27:37;;;;;;;33.37;20.60;;;;;;;-143.84;81.47;45203.31;5010263;28;20530;-75
2023/01/31 07:30:05;;;;;;;35.50;20.23;;;;;;;-143.84;81.72;45172.84;5009190;28;20428;-74
2023/01/31 07:32:33;;;;;;;39.57;19.50;;;;;;;-143.84;81.17;45170.94;5009984;28;20446;-74
2023/01/31 07:35:00;;;;;;;34.67;19.73;;;;;;;-143.84;81.53;45178.56;5009520;28;20451;-74
2023/01/31 07:37:27;;;;;;;36.43;19.87;;;;;;;-143.84;80.90;45189.97;5011128;28;20846;-75
2023/01/31 07:39:55;;;;;;;31.27;18.37;;;;;;;-143.84;80.53;45212.84;5010844;28;20445;-74
2023/01/31 07:42:22;;;;;;;35.40;18.67;;;;;;;-143.84;80.30;45231.88;5010407;28;20440;-75
2023/01/31 07:44:49;;;;;;;42.70;19.57;;;;;;;-143.84;80.08;45222.34;5008553;28;20529;-75
2023/01/31 07:47:16;;;;;;;37.50;20.07;;;;;;;-143.84;79.89;45228.06;5008577;28;20833;-75
2023/01/31 07:49:44;;;;;;;36.20;20.30;;;;;;;-143.84;79.33;45233.78;5010289;28;20510;-75
2023/01/31 07:52:12;;;;;;;35.73;19.67;;;;;;;-143.84;79.19;45209.03;5010310;28;20478;-75
2023/01/31 07:54:39;;;;;;;37.70;20.47;;;;;;;-143.84;79.19;45226.16;5009965;28;20451;-74
2023/01/31 07:57:06;;;;;;;36.57;18.53;;;;;;;-143.84;79.56;45195.69;5010549;28;20447;-75
2023/01/31 07:59:33;;;;;;;34.17;19.40;;;;;;;-143.84;78.91;45245.19;5010624;28;20514;-75
2023/01/31 08:04:46;;;;;;;30.17;18.40;;;;;;;-143.84;79.35;45222.34;5011125;28;20936;-75
2023/01/31 08:07:13;;;;;;;37.10;19.93;;;;;;;-143.84;79.54;45222.34;5010902;28;20499;-75
2023/01/31 08:09:42;;;;;;;57.17;25.77;;;;;;;-143.84;79.33;45226.16;5010646;28;20490;-75
2023/01/31 08:12:09;;;;;;;39.00;21.97;;;;;;;-143.84;78.91;45218.53;5010551;28;20443;-75
2023/01/31 08:14:36;;;;;;;32.57;19.17;;;;;;;-143.84;78.46;45212.84;5010621;28;20464;-75
2023/01/31 08:17:05;;;;;;;36.50;18.93;;;;;;;-143.84;78.78;45235.69;5010719;28;20502;-74
2023/01/31 08:19:32;;;;;;;35.40;18.93;;;;;;;-143.84;78.03;45231.88;5010852;28;20490;-74
2023/01/31 08:22:00;;;;;;;38.47;22.33;;;;;;;-143.84;77.79;45239.50;5010370;28;20478;-75
2023/01/31 08:24:29;;;;;;;33.17;19.10;;;;;;;-143.84;77.45;45218.53;5010781;28;20461;-75
2023/01/31 08:26:56;;;;;;;34.73;18.27;;;;;;;-143.84;77.58;45218.53;5010661;28;20468;-75
2023/01/31 08:29:24;;;;;;;39.90;21.17;;;;;;;-143.84;76.63;45212.84;5010588;28;20478;-75
2023/01/31 08:31:52;;;;;;;41.70;20.40;;;;;;;-143.84;76.56;45249.00;5010532;28;20514;-75
2023/01/31 08:34:19;;;;;;;30.40;17.60;;;;;;;-143.84;76.65;45260.44;5010349;28;21009;-75
2023/01/31 08:36:46;;;;;;;31.87;18.37;;;;;;;-143.84;76.63;45254.72;5008889;28;20861;-75
2023/01/31 08:39:15;;;;;;;37.50;20.03;;;;;;;-143.84;76.62;45243.31;5010596;28;20444;-75
2023/01/31 08:41:42;;;;;;;29.37;16.70;;;;;;;-143.84;76.41;45224.25;5009950;28;20501;-75
2023/01/31 08:44:11;;;;;;;31.13;18.70;;;;;;;-143.84;76.80;45264.25;5008637;28;20456;-75
2023/01/31 08:46:39;;;;;;;29.97;16.80;;;;;;;-143.84;76.78;45220.44;5009764;28;20505;-74
2023/01/31 08:49:07;;;;;;;39.10;20.40;;;;;;;-143.84;76.60;45258.53;5009601;28;20506;-75
2023/01/31 08:51:34;;;;;;;30.70;18.30;;;;;;;-143.84;76.77;45228.06;5010079;28;20450;-75
2023/01/31 08:54:02;;;;;;;35.43;20.10;;;;;;;-143.84;76.23;45231.88;5011109;28;20482;-75
2023/01/31 08:56:30;;;;;;;25.17;17.33;;;;;;;-143.84;76.38;45229.97;5014261;28;20949;-75
2023/01/31 08:58:57;;;;;;;27.03;16.20;;;;;;;-143.84;75.51;45279.47;5014021;28;20443;-75
2023/01/31 09:01:25;;;;;;;24.80;15.30;;;;;;;-143.84;75.44;45239.50;5014254;28;20463;-75
2023/01/31 09:03:55;;;;;;;27.90;16.90;;;;;;;-143.84;75.34;45250.91;5013530;28;20926;-74
2023/01/31 09:06:26;;;;;;;33.77;17.53;;;;;;;-143.84;75.51;45241.41;5013683;28;20443;-75
2023/01/31 09:08:53;;;;;;;30.07;18.43;;;;;;;-143.84;75.02;45273.78;5013909;28;20475;-74
2023/01/31 09:11:20;;;;;;;30.43;16.77;;;;;;;-143.84;75.60;45231.88;5013607;28;20447;-74
2023/01/31 09:13:50;;;;;;;23.83;14.70;;;;;;;-143.84;75.09;45247.09;5013282;28;21033;-74
2023/01/31 09:16:18;;;;;;;23.03;13.50;;;;;;;-143.84;74.05;45235.69;5012828;28;20542;-74
2023/01/31 09:18:45;;;;;;;21.73;13.93;;;;;;;-143.84;73.66;45228.06;5012267;28;20455;-76
2023/01/31 09:21:14;;;;;;;23.30;13.50;;;;;;;-143.84;73.06;45224.25;5012857;28;20533;-75
2023/01/31 09:23:42;;;;;;;19.20;12.80;;;;;;;-143.84;72.99;45239.50;5013056;28;20523;-74
2023/01/31 09:26:09;;;;;;;20.30;12.80;;;;;;;-143.84;72.56;45231.88;5012833;28;20952;-74
2023/01/31 09:28:36;;;;;;;25.10;15.07;;;;;;;-143.84;72.42;45243.31;5012959;28;20490;-74
2023/01/31 09:31:06;;;;;;;18.33;12.80;;;;;;;-143.84;71.97;45254.72;5012938;28;20453;-74
2023/01/31 09:33:34;;;;;;;23.60;14.13;;;;;;;-143.84;72.21;45252.81;5013187;28;20544;-75
2023/01/31 09:36:03;;;;;;;24.53;14.73;;;;;;;-143.84;72.68;45218.53;5012820;28;20448;-74
2023/01/31 09:38:31;;;;;;;26.43;16.47;;;;;;;-143.84;72.70;45241.41;5012688;28;20455;-74
2023/01/31 09:41:01;;;;;;;26.03;18.70;;;;;;;-143.84;72.17;45239.50;5012519;28;20505;-74
2023/01/31 09:43:33;;;;;;;25.50;16.83;;;;;;;-143.84;71.71;45235.69;5012797;28;20419;-74
2023/01/31 09:46:06;;;;;;;22.27;14.80;;;;;;;-143.84;70.98;45249.00;5012795;28;20521;-74
2023/01/31 09:48:37;;;;;;;23.20;14.30;;;;;;;-143.84;70.91;45239.50;5012581;28;20479;-74
2023/01/31 09:51:06;;;;;;;23.50;13.63;;;;;;;-143.84;70.23;45224.25;5012141;28;20506;-75
2023/01/31 09:53:37;;;;;;;23.03;13.40;;;;;;;-143.84;70.59;45220.44;5011690;28;20459;-74
2023/01/31 09:56:20;;;;;;;21.30;14.27;;;;;;;-143.84;70.39;45228.06;5012413;28;20443;-75
2023/01/31 09:58:56;;;;;;;27.23;15.63;;;;;;;-143.84;69.95;45249.00;5012112;28;20453;-75
2023/01/31 10:01:29;;;;;;;26.23;13.83;;;;;;;-143.84;69.26;45218.53;5011952;28;20527;-75
2023/01/31 10:04:09;;;;;;;24.93;13.53;;;;;;;-143.84;68.65;45241.41;5012199;28;20464;-74
2023/01/31 10:06:44;;;;;;;22.30;13.53;;;;;;;-143.84;68.04;45228.06;5010684;28;20454;-74
2023/01/31 10:09:19;;;;;;;23.43;14.53;;;;;;;-143.84;68.41;45226.16;5011890;28;20482;-74
2023/01/31 10:11:49;;;;;;;24.20;14.37;;;;;;;-143.84;69.38;45245.19;5011963;28;20451;-75
2023/01/31 10:14:26;;;;;;;22.53;14.60;;;;;;;-143.84;68.12;45258.53;5012710;28;20448;-76
2023/01/31 10:17:07;;;;;;;23.47;14.13;;;;;;;-143.84;67.60;45237.59;5012623;28;20509;-77
2023/01/31 10:19:43;;;;;;;28.73;16.57;;;;;;;-143.84;68.01;45233.78;5012831;28;20491;-75
2023/01/31 10:22:17;;;;;;;25.13;15.47;;;;;;;-143.84;67.75;45239.50;5011494;28;20909;-74
2023/01/31 10:24:49;;;;;;;23.00;15.57;;;;;;;-143.84;66.64;45224.25;5011631;28;20809;-75
2023/01/31 10:27:25;;;;;;;21.27;13.60;;;;;;;-143.84;66.34;45250.91;5011674;28;21161;-74
2023/01/31 10:29:56;;;;;;;20.60;13.00;;;;;;;-143.84;67.00;45224.25;5011812;28;20467;-75
2023/01/31 10:32:30;;;;;;;21.27;14.17;;;;;;;-143.84;66.47;45218.53;5011714;28;20439;-74
2023/01/31 10:35:03;;;;;;;19.70;13.50;;;;;;;-143.84;67.03;45228.06;5011916;28;20466;-74
2023/01/31 10:37:37;;;;;;;22.43;14.57;;;;;;;-143.84;65.99;45243.31;5012369;28;20791;-75
2023/01/31 10:40:07;;;;;;;23.00;13.93;;;;;;;-143.84;65.65;45224.25;5011975;28;21004;-75
2023/01/31 10:42:36;;;;;;;19.00;12.63;;;;;;;-143.84;66.26;45231.88;5012145;28;20884;-75
2023/01/31 10:45:15;;;;;;;21.57;13.80;;;;;;;-143.84;64.85;45231.88;5011668;28;20934;-75
2023/01/31 10:47:50;;;;;;;22.90;14.70;;;;;;;-143.84;65.01;45235.69;5012168;28;20445;-75
2023/01/31 10:50:22;;;;;;;24.80;15.47;;;;;;;-143.84;66.37;45226.16;5011988;28;20552;-75
2023/01/31 10:53:03;;;;;;;22.10;14.70;;;;;;;-143.84;65.39;45256.63;5011509;28;20814;-75
2023/01/31 10:55:52;;;;;;;21.57;13.77;;;;;;;-143.84;65.06;45229.97;5011354;28;20439;-75
2023/01/31 10:58:22;;;;;;;22.37;13.97;;;;;;;-143.84;64.17;45226.16;5009343;28;20445;-75
2023/01/31 11:00:50;;;;;;;20.53;13.83;;;;;;;-143.84;63.68;45235.69;5010885;28;20447;-75
2023/01/31 11:03:19;;;;;;;23.13;14.00;;;;;;;-143.84;63.76;45243.31;5010557;28;20447;-75
2023/01/31 11:05:49;;;;;;;27.13;16.73;;;;;;;-143.84;65.79;45245.19;5011146;28;20937;-74
2023/01/31 11:08:29;;;;;;;19.97;13.70;;;;;;;-143.84;64.26;45247.09;5010196;28;20471;-75
2023/01/31 11:10:58;;;;;;;18.83;12.70;;;;;;;-143.84;65.33;45245.19;5010976;28;21091;-75
2023/01/31 11:13:25;;;;;;;21.40;14.27;;;;;;;-143.84;64.89;45264.25;5011386;28;20444;-75
2023/01/31 11:15:54;;;;;;;19.50;13.80;;;;;;;-143.84;65.22;45228.06;5011208;28;20443;-75
2023/01/31 11:18:32;;;;;;;21.27;13.77;;;;;;;-143.84;64.99;45235.69;5010917;28;20439;-75
2023/01/31 11:21:01;;;;;;;22.37;13.80;;;;;;;-143.84;65.50;45235.69;5010710;28;20499;-75
2023/01/31 11:23:32;;;;;;;19.93;13.77;;;;;;;-143.84;65.14;45247.09;5011229;28;21088;-75